sensor_id;sensor_type;location;lat;lon;timestamp;temperature;humidity
28358;DHT22;15605;48.114;11.522;2024-02-15T01:31:50;12.20;62.00
28358;DHT22;15605;48.114;11.522;2024-02-15T01:34:32;12.20;62.00
28358;DHT22;15605;48.114;11.522;2024-02-15T01:37:17;12.20;62.00
28358;DHT22;15605;48.114;11.522;2024-02-15T01:39:53;12.10;61.80
28358;DHT22;15605;48.114;11.522;2024-02-15T01:42:32;12.10;61.90
28358;DHT22;15605;48.114;11.522;2024-02-15T01:45:11;12.20;61.90
28358;DHT22;15605;48.114;11.522;2024-02-15T01:47:45;12.20;61.90
28358;DHT22;15605;48.114;11.522;2024-02-15T01:50:20;12.20;61.90
28358;DHT22;15605;48.114;11.522;2024-02-15T01:52:57;12.20;62.10
28358;DHT22;15605;48.114;11.522;2024-02-15T01:55:37;12.20;62.10
28358;DHT22;15605;48.114;11.522;2024-02-15T01:58:11;12.20;62.30
28358;DHT22;15605;48.114;11.522;2024-02-15T02:00:50;12.10;62.30
28358;DHT22;15605;48.114;11.522;2024-02-15T02:03:31;12.10;62.30
28358;DHT22;15605;48.114;11.522;2024-02-15T02:06:03;12.10;62.20
28358;DHT22;15605;48.114;11.522;2024-02-15T02:08:39;12.10;62.20
28358;DHT22;15605;48.114;11.522;2024-02-15T02:11:18;12.10;62.20
28358;DHT22;15605;48.114;11.522;2024-02-15T02:13:56;12.20;62.30
28358;DHT22;15605;48.114;11.522;2024-02-15T02:20:01;12.10;62.10
28358;DHT22;15605;48.114;11.522;2024-02-15T02:22:40;12.20;62.40
28358;DHT22;15605;48.114;11.522;2024-02-15T02:25:18;12.20;62.10
28358;DHT22;15605;48.114;11.522;2024-02-15T02:27:53;12.20;62.10
28358;DHT22;15605;48.114;11.522;2024-02-15T02:30:28;12.20;62.10
28358;DHT22;15605;48.114;11.522;2024-02-15T02:33:07;12.20;62.00
28358;DHT22;15605;48.114;11.522;2024-02-15T02:36:24;12.20;62.10
28358;DHT22;15605;48.114;11.522;2024-02-15T02:38:56;12.20;62.10
28358;DHT22;15605;48.114;11.522;2024-02-15T04:48:57;12.00;63.10
28358;DHT22;15605;48.114;11.522;2024-02-15T04:51:38;12.00;62.90
28358;DHT22;15605;48.114;11.522;2024-02-15T04:54:26;12.00;62.80
28358;DHT22;15605;48.114;11.522;2024-02-15T04:57:08;12.10;63.60
28358;DHT22;15605;48.114;11.522;2024-02-15T04:59:50;12.10;62.80
28358;DHT22;15605;48.114;11.522;2024-02-15T05:02:22;12.00;62.80
28358;DHT22;15605;48.114;11.522;2024-02-15T05:04:53;12.10;62.80
28358;DHT22;15605;48.114;11.522;2024-02-15T05:07:30;12.10;62.80
28358;DHT22;15605;48.114;11.522;2024-02-15T05:10:04;12.00;62.70
28358;DHT22;15605;48.114;11.522;2024-02-15T05:12:38;12.10;62.80
28358;DHT22;15605;48.114;11.522;2024-02-15T05:15:28;12.10;62.60
28358;DHT22;15605;48.114;11.522;2024-02-15T05:18:09;12.10;62.60
28358;DHT22;15605;48.114;11.522;2024-02-15T05:20:50;12.10;62.70
28358;DHT22;15605;48.114;11.522;2024-02-15T05:23:39;12.10;62.60
28358;DHT22;15605;48.114;11.522;2024-02-15T05:26:16;12.10;62.70
28358;DHT22;15605;48.114;11.522;2024-02-15T05:29:20;12.10;62.60
28358;DHT22;15605;48.114;11.522;2024-02-15T05:32:05;12.10;62.60
28358;DHT22;15605;48.114;11.522;2024-02-15T05:34:46;12.10;62.50
28358;DHT22;15605;48.114;11.522;2024-02-15T05:37:21;12.10;62.50
28358;DHT22;15605;48.114;11.522;2024-02-15T05:40:06;12.10;62.50
28358;DHT22;15605;48.114;11.522;2024-02-15T05:42:58;12.10;62.50
28358;DHT22;15605;48.114;11.522;2024-02-15T05:45:44;12.10;62.50
28358;DHT22;15605;48.114;11.522;2024-02-15T05:48:27;12.10;62.40
28358;DHT22;15605;48.114;11.522;2024-02-15T05:50:59;12.10;62.40
28358;DHT22;15605;48.114;11.522;2024-02-15T05:53:34;12.10;62.30
28358;DHT22;15605;48.114;11.522;2024-02-15T05:56:14;12.10;62.30
28358;DHT22;15605;48.114;11.522;2024-02-15T05:58:54;12.10;62.20
28358;DHT22;15605;48.114;11.522;2024-02-15T06:01:58;12.10;62.30
28358;DHT22;15605;48.114;11.522;2024-02-15T06:04:29;12.00;62.30
28358;DHT22;15605;48.114;11.522;2024-02-15T06:07:00;12.00;62.30
28358;DHT22;15605;48.114;11.522;2024-02-15T06:09:31;12.00;62.00
28358;DHT22;15605;48.114;11.522;2024-02-15T06:12:15;12.10;62.00
28358;DHT22;15605;48.114;11.522;2024-02-15T06:14:45;12.00;61.80
28358;DHT22;15605;48.114;11.522;2024-02-15T06:17:16;12.00;61.70
28358;DHT22;15605;48.114;11.522;2024-02-15T06:19:48;12.00;61.70
28358;DHT22;15605;48.114;11.522;2024-02-15T06:22:19;12.00;61.50
28358;DHT22;15605;48.114;11.522;2024-02-15T06:24:54;12.00;61.50
28358;DHT22;15605;48.114;11.522;2024-02-15T06:27:24;12.00;61.50
28358;DHT22;15605;48.114;11.522;2024-02-15T06:29:53;12.10;61.50
28358;DHT22;15605;48.114;11.522;2024-02-15T06:32:57;12.00;61.40
28358;DHT22;15605;48.114;11.522;2024-02-15T06:36:04;12.10;61.30
28358;DHT22;15605;48.114;11.522;2024-02-15T06:38:53;12.10;61.20
28358;DHT22;15605;48.114;11.522;2024-02-15T06:41:43;12.10;61.20
28358;DHT22;15605;48.114;11.522;2024-02-15T06:44:14;12.10;61.10
28358;DHT22;15605;48.114;11.522;2024-02-15T06:46:47;12.10;61.10
28358;DHT22;15605;48.114;11.522;2024-02-15T06:49:22;12.00;61.00
28358;DHT22;15605;48.114;11.522;2024-02-15T06:51:58;12.10;61.20
28358;DHT22;15605;48.114;11.522;2024-02-15T06:54:32;12.10;61.10
28358;DHT22;15605;48.114;11.522;2024-02-15T06:57:16;12.10;61.00
28358;DHT22;15605;48.114;11.522;2024-02-15T07:00:38;12.00;61.00
28358;DHT22;15605;48.114;11.522;2024-02-15T07:03:15;12.10;61.00
28358;DHT22;15605;48.114;11.522;2024-02-15T07:06:25;12.10;61.10
28358;DHT22;15605;48.114;11.522;2024-02-15T07:11:59;12.10;61.20
28358;DHT22;15605;48.114;11.522;2024-02-15T07:18:00;12.10;61.00
28358;DHT22;15605;48.114;11.522;2024-02-15T07:20:32;12.10;61.00
28358;DHT22;15605;48.114;11.522;2024-02-15T07:23:05;12.10;61.10
28358;DHT22;15605;48.114;11.522;2024-02-15T07:25:40;12.20;61.20
28358;DHT22;15605;48.114;11.522;2024-02-15T07:28:55;12.10;61.20
28358;DHT22;15605;48.114;11.522;2024-02-15T07:31:44;12.10;61.30
28358;DHT22;15605;48.114;11.522;2024-02-15T07:34:57;12.10;61.30
28358;DHT22;15605;48.114;11.522;2024-02-15T07:37:32;12.10;61.30
28358;DHT22;15605;48.114;11.522;2024-02-15T07:40:28;12.10;61.40
28358;DHT22;15605;48.114;11.522;2024-02-15T07:43:13;12.10;61.30
28358;DHT22;15605;48.114;11.522;2024-02-15T07:45:47;12.10;61.40
28358;DHT22;15605;48.114;11.522;2024-02-15T07:48:21;12.10;61.40
28358;DHT22;15605;48.114;11.522;2024-02-15T07:51:18;12.10;61.50
28358;DHT22;15605;48.114;11.522;2024-02-15T07:54:11;12.00;61.60
28358;DHT22;15605;48.114;11.522;2024-02-15T07:57:06;12.00;61.80
28358;DHT22;15605;48.114;11.522;2024-02-15T07:59:48;12.00;61.70
28358;DHT22;15605;48.114;11.522;2024-02-15T08:02:29;12.00;61.80
28358;DHT22;15605;48.114;11.522;2024-02-15T08:05:23;12.00;61.80
28358;DHT22;15605;48.114;11.522;2024-02-15T08:08:42;12.00;61.70
28358;DHT22;15605;48.114;11.522;2024-02-15T08:11:25;12.00;61.70
28358;DHT22;15605;48.114;11.522;2024-02-15T08:14:16;12.00;61.60
28358;DHT22;15605;48.114;11.522;2024-02-15T08:17:03;12.00;61.70
28358;DHT22;15605;48.114;11.522;2024-02-15T08:20:01;12.10;61.60
28358;DHT22;15605;48.114;11.522;2024-02-15T08:22:39;12.00;61.60
28358;DHT22;15605;48.114;11.522;2024-02-15T08:27:59;12.10;61.70
28358;DHT22;15605;48.114;11.522;2024-02-15T08:30:54;12.10;61.50
28358;DHT22;15605;48.114;11.522;2024-02-15T08:34:05;12.10;61.40
28358;DHT22;15605;48.114;11.522;2024-02-15T08:36:44;12.00;61.50
28358;DHT22;15605;48.114;11.522;2024-02-15T08:39:44;12.10;61.60
28358;DHT22;15605;48.114;11.522;2024-02-15T08:42:16;12.10;61.60
28358;DHT22;15605;48.114;11.522;2024-02-15T08:45:15;12.10;61.60
28358;DHT22;15605;48.114;11.522;2024-02-15T08:47:48;12.10;61.60
28358;DHT22;15605;48.114;11.522;2024-02-15T08:50:57;12.10;61.40
28358;DHT22;15605;48.114;11.522;2024-02-15T08:54:10;12.10;61.40
28358;DHT22;15605;48.114;11.522;2024-02-15T08:56:42;12.10;61.50
28358;DHT22;15605;48.114;11.522;2024-02-15T08:59:12;12.10;61.50
28358;DHT22;15605;48.114;11.522;2024-02-15T09:02:09;12.10;61.60
28358;DHT22;15605;48.114;11.522;2024-02-15T09:04:42;12.10;61.60
28358;DHT22;15605;48.114;11.522;2024-02-15T09:07:38;12.10;61.60
28358;DHT22;15605;48.114;11.522;2024-02-15T09:10:11;12.10;61.60
28358;DHT22;15605;48.114;11.522;2024-02-15T09:12:46;12.10;61.60
28358;DHT22;15605;48.114;11.522;2024-02-15T09:15:25;12.10;61.50
28358;DHT22;15605;48.114;11.522;2024-02-15T09:24:59;12.10;61.30
28358;DHT22;15605;48.114;11.522;2024-02-15T09:27:53;12.10;61.30
28358;DHT22;15605;48.114;11.522;2024-02-15T09:30:27;12.20;61.30
28358;DHT22;15605;48.114;11.522;2024-02-15T09:32:58;12.20;61.30
28358;DHT22;15605;48.114;11.522;2024-02-15T09:35:27;12.10;61.30
28358;DHT22;15605;48.114;11.522;2024-02-15T09:37:57;12.10;61.30
28358;DHT22;15605;48.114;11.522;2024-02-15T09:40:34;12.20;61.30
28358;DHT22;15605;48.114;11.522;2024-02-15T09:43:05;12.10;61.30
28358;DHT22;15605;48.114;11.522;2024-02-15T09:45:56;12.10;61.40
28358;DHT22;15605;48.114;11.522;2024-02-15T09:48:28;12.10;61.40
28358;DHT22;15605;48.114;11.522;2024-02-15T09:51:00;12.20;61.30
28358;DHT22;15605;48.114;11.522;2024-02-15T09:53:34;12.20;61.30
28358;DHT22;15605;48.114;11.522;2024-02-15T09:56:24;12.20;61.40
28358;DHT22;15605;48.114;11.522;2024-02-15T09:58:59;12.10;61.40
28358;DHT22;15605;48.114;11.522;2024-02-15T10:01:31;12.20;61.30
28358;DHT22;15605;48.114;11.522;2024-02-15T10:04:15;12.20;61.20
28358;DHT22;15605;48.114;11.522;2024-02-15T10:06:44;12.20;61.20
28358;DHT22;15605;48.114;11.522;2024-02-15T10:09:28;12.20;61.20
28358;DHT22;15605;48.114;11.522;2024-02-15T10:12:02;12.20;61.30
28358;DHT22;15605;48.114;11.522;2024-02-15T10:14:35;12.20;61.30
28358;DHT22;15605;48.114;11.522;2024-02-15T10:17:07;12.30;61.30
28358;DHT22;15605;48.114;11.522;2024-02-15T10:24:04;12.20;61.20
28358;DHT22;15605;48.114;11.522;2024-02-15T10:26:43;12.20;61.30
28358;DHT22;15605;48.114;11.522;2024-02-15T10:29:35;12.20;61.40
28358;DHT22;15605;48.114;11.522;2024-02-15T10:32:06;12.20;61.30
28358;DHT22;15605;48.114;11.522;2024-02-15T10:35:27;12.20;61.30
28358;DHT22;15605;48.114;11.522;2024-02-15T10:42:10;12.30;61.40
28358;DHT22;15605;48.114;11.522;2024-02-15T10:44:41;12.20;61.40
28358;DHT22;15605;48.114;11.522;2024-02-15T10:50:24;12.20;61.50
28358;DHT22;15605;48.114;11.522;2024-02-15T10:56:36;12.20;61.40
28358;DHT22;15605;48.114;11.522;2024-02-15T10:59:23;12.20;61.40
28358;DHT22;15605;48.114;11.522;2024-02-15T11:02:37;12.20;61.40
28358;DHT22;15605;48.114;11.522;2024-02-15T11:05:29;12.20;61.40
28358;DHT22;15605;48.114;11.522;2024-02-15T11:08:08;12.20;61.40
28358;DHT22;15605;48.114;11.522;2024-02-15T11:10:56;12.20;61.50
28358;DHT22;15605;48.114;11.522;2024-02-15T11:13:27;12.20;61.60
28358;DHT22;15605;48.114;11.522;2024-02-15T11:16:00;12.20;61.70
28358;DHT22;15605;48.114;11.522;2024-02-15T11:19:03;12.20;61.70
28358;DHT22;15605;48.114;11.522;2024-02-15T11:21:57;12.20;61.60
28358;DHT22;15605;48.114;11.522;2024-02-15T11:24:41;12.20;61.60
28358;DHT22;15605;48.114;11.522;2024-02-15T11:27:26;12.20;61.60
28358;DHT22;15605;48.114;11.522;2024-02-15T11:30:48;12.20;61.80
28358;DHT22;15605;48.114;11.522;2024-02-15T11:32:58;12.20;61.70
28358;DHT22;15605;48.114;11.522;2024-02-15T11:35:31;12.20;61.80
28358;DHT22;15605;48.114;11.522;2024-02-15T11:38:27;12.20;61.80
28358;DHT22;15605;48.114;11.522;2024-02-15T11:43:50;12.30;61.70
28358;DHT22;15605;48.114;11.522;2024-02-15T11:46:27;12.20;61.60
28358;DHT22;15605;48.114;11.522;2024-02-15T11:49:03;12.30;61.70
28358;DHT22;15605;48.114;11.522;2024-02-15T11:51:38;12.20;61.80
28358;DHT22;15605;48.114;11.522;2024-02-15T11:54:21;12.20;61.90
28358;DHT22;15605;48.114;11.522;2024-02-15T11:56:53;12.20;61.90
28358;DHT22;15605;48.114;11.522;2024-02-15T12:00:06;12.20;61.90
28358;DHT22;15605;48.114;11.522;2024-02-15T12:02:54;12.20;61.90
28358;DHT22;15605;48.114;11.522;2024-02-15T12:06:16;12.20;61.80
28358;DHT22;15605;48.114;11.522;2024-02-15T12:09:07;12.20;61.90
28358;DHT22;15605;48.114;11.522;2024-02-15T12:12:00;12.30;61.80
28358;DHT22;15605;48.114;11.522;2024-02-15T12:14:59;12.20;61.80
28358;DHT22;15605;48.114;11.522;2024-02-15T12:17:51;12.30;61.90
28358;DHT22;15605;48.114;11.522;2024-02-15T12:20:40;12.20;61.90
28358;DHT22;15605;48.114;11.522;2024-02-15T12:23:11;12.30;61.80
28358;DHT22;15605;48.114;11.522;2024-02-15T12:26:04;12.30;61.90
28358;DHT22;15605;48.114;11.522;2024-02-15T12:29:07;12.20;61.90
28358;DHT22;15605;48.114;11.522;2024-02-15T12:31:46;12.20;61.90
28358;DHT22;15605;48.114;11.522;2024-02-15T12:34:16;12.30;61.90
28358;DHT22;15605;48.114;11.522;2024-02-15T12:37:04;12.30;61.90
28358;DHT22;15605;48.114;11.522;2024-02-15T12:39:38;12.30;62.00
28358;DHT22;15605;48.114;11.522;2024-02-15T12:42:12;12.20;61.90
28358;DHT22;15605;48.114;11.522;2024-02-15T12:44:44;12.30;62.00
28358;DHT22;15605;48.114;11.522;2024-02-15T12:47:28;12.30;61.80
28358;DHT22;15605;48.114;11.522;2024-02-15T12:50:13;12.30;61.80
28358;DHT22;15605;48.114;11.522;2024-02-15T12:53:12;12.30;61.80
28358;DHT22;15605;48.114;11.522;2024-02-15T12:55:58;12.30;62.00
28358;DHT22;15605;48.114;11.522;2024-02-15T12:58:32;12.30;62.00
28358;DHT22;15605;48.114;11.522;2024-02-15T13:01:05;12.30;61.90
28358;DHT22;15605;48.114;11.522;2024-02-15T13:03:54;12.30;61.90
28358;DHT22;15605;48.114;11.522;2024-02-15T13:07:08;12.30;62.80
28358;DHT22;15605;48.114;11.522;2024-02-15T13:09:44;12.30;62.20
28358;DHT22;15605;48.114;11.522;2024-02-15T13:12:14;12.30;62.10
28358;DHT22;15605;48.114;11.522;2024-02-15T13:14:55;12.30;62.00
28358;DHT22;15605;48.114;11.522;2024-02-15T13:17:32;12.30;62.10
28358;DHT22;15605;48.114;11.522;2024-02-15T13:20:10;12.30;62.20
28358;DHT22;15605;48.114;11.522;2024-02-15T13:23:14;12.30;62.10
28358;DHT22;15605;48.114;11.522;2024-02-15T13:26:06;12.30;62.20
28358;DHT22;15605;48.114;11.522;2024-02-15T13:28:39;12.30;62.20
28358;DHT22;15605;48.114;11.522;2024-02-15T13:31:33;12.40;62.10
28358;DHT22;15605;48.114;11.522;2024-02-15T13:34:27;12.30;62.00
28358;DHT22;15605;48.114;11.522;2024-02-15T13:36:58;12.30;62.10
28358;DHT22;15605;48.114;11.522;2024-02-15T13:39:38;12.20;62.10
28358;DHT22;15605;48.114;11.522;2024-02-15T13:42:39;12.20;62.20
28358;DHT22;15605;48.114;11.522;2024-02-15T13:48:16;12.30;62.20
28358;DHT22;15605;48.114;11.522;2024-02-15T13:51:10;12.30;62.30
28358;DHT22;15605;48.114;11.522;2024-02-15T13:54:02;12.30;62.30
28358;DHT22;15605;48.114;11.522;2024-02-15T13:56:33;12.30;62.30
28358;DHT22;15605;48.114;11.522;2024-02-15T13:59:04;12.30;62.30
28358;DHT22;15605;48.114;11.522;2024-02-15T14:02:03;12.30;63.00
28358;DHT22;15605;48.114;11.522;2024-02-15T14:05:05;12.30;62.30
28358;DHT22;15605;48.114;11.522;2024-02-15T14:07:44;12.30;62.30
28358;DHT22;15605;48.114;11.522;2024-02-15T14:10:16;12.30;62.30
28358;DHT22;15605;48.114;11.522;2024-02-15T14:12:49;12.20;62.30
28358;DHT22;15605;48.114;11.522;2024-02-15T14:15:46;12.30;62.30
28358;DHT22;15605;48.114;11.522;2024-02-15T14:18:21;12.30;62.40
28358;DHT22;15605;48.114;11.522;2024-02-15T14:21:00;12.30;62.40
28358;DHT22;15605;48.114;11.522;2024-02-15T14:24:20;12.30;62.30
28358;DHT22;15605;48.114;11.522;2024-02-15T14:26:59;12.30;62.20
28358;DHT22;15605;48.114;11.522;2024-02-15T14:30:19;12.30;62.20
28358;DHT22;15605;48.114;11.522;2024-02-15T14:33:35;12.30;62.30
28358;DHT22;15605;48.114;11.522;2024-02-15T14:37:02;12.30;62.30
28358;DHT22;15605;48.114;11.522;2024-02-15T14:39:39;12.30;62.40
28358;DHT22;15605;48.114;11.522;2024-02-15T14:42:21;12.30;62.40
28358;DHT22;15605;48.114;11.522;2024-02-15T14:45:14;12.30;62.40
28358;DHT22;15605;48.114;11.522;2024-02-15T14:47:47;12.30;62.40
28358;DHT22;15605;48.114;11.522;2024-02-15T14:50:19;12.20;62.60
28358;DHT22;15605;48.114;11.522;2024-02-15T14:52:52;12.30;62.70
28358;DHT22;15605;48.114;11.522;2024-02-15T14:55:29;12.30;62.80
28358;DHT22;15605;48.114;11.522;2024-02-15T14:57:59;12.40;63.10
28358;DHT22;15605;48.114;11.522;2024-02-15T15:00:29;12.40;63.50
28358;DHT22;15605;48.114;11.522;2024-02-15T15:03:00;12.40;63.60
28358;DHT22;15605;48.114;11.522;2024-02-15T15:05:32;12.40;63.50
28358;DHT22;15605;48.114;11.522;2024-02-15T15:08:22;12.40;63.50
28358;DHT22;15605;48.114;11.522;2024-02-15T15:11:11;12.50;63.80
28358;DHT22;15605;48.114;11.522;2024-02-15T15:14:02;12.50;63.50
28358;DHT22;15605;48.114;11.522;2024-02-15T15:16:50;12.50;63.60
28358;DHT22;15605;48.114;11.522;2024-02-15T15:19:23;12.50;63.50
28358;DHT22;15605;48.114;11.522;2024-02-15T15:22:00;12.50;63.60
28358;DHT22;15605;48.114;11.522;2024-02-15T15:24:36;12.50;63.70
28358;DHT22;15605;48.114;11.522;2024-02-15T15:27:13;12.50;63.60
28358;DHT22;15605;48.114;11.522;2024-02-15T15:29:49;12.50;63.70
28358;DHT22;15605;48.114;11.522;2024-02-15T15:32:41;12.50;63.60
28358;DHT22;15605;48.114;11.522;2024-02-15T15:35:16;12.60;63.60
28358;DHT22;15605;48.114;11.522;2024-02-15T15:38:08;12.60;63.60
28358;DHT22;15605;48.114;11.522;2024-02-15T15:40:38;12.60;63.70
28358;DHT22;15605;48.114;11.522;2024-02-15T15:43:09;12.60;63.70
28358;DHT22;15605;48.114;11.522;2024-02-15T15:46:16;12.60;63.80
28358;DHT22;15605;48.114;11.522;2024-02-15T15:48:50;12.60;63.40
28358;DHT22;15605;48.114;11.522;2024-02-15T15:51:22;12.60;63.30
28358;DHT22;15605;48.114;11.522;2024-02-15T15:53:55;12.60;63.80
28358;DHT22;15605;48.114;11.522;2024-02-15T15:56:28;12.70;63.80
28358;DHT22;15605;48.114;11.522;2024-02-15T15:59:03;12.70;63.70
28358;DHT22;15605;48.114;11.522;2024-02-15T16:02:21;12.70;63.40
28358;DHT22;15605;48.114;11.522;2024-02-15T16:04:59;12.60;63.30
28358;DHT22;15605;48.114;11.522;2024-02-15T16:07:56;12.60;63.50
28358;DHT22;15605;48.114;11.522;2024-02-15T16:10:51;12.60;63.40
28358;DHT22;15605;48.114;11.522;2024-02-15T16:13:27;12.60;63.50
28358;DHT22;15605;48.114;11.522;2024-02-15T16:16:19;12.60;63.60
28358;DHT22;15605;48.114;11.522;2024-02-15T16:18:59;12.50;63.50
28358;DHT22;15605;48.114;11.522;2024-02-15T16:21:48;12.60;63.50
28358;DHT22;15605;48.114;11.522;2024-02-15T16:24:19;12.60;63.40
28358;DHT22;15605;48.114;11.522;2024-02-15T16:27:40;12.60;63.40
28358;DHT22;15605;48.114;11.522;2024-02-15T16:30:22;12.50;63.50
28358;DHT22;15605;48.114;11.522;2024-02-15T16:32:53;12.50;63.50
28358;DHT22;15605;48.114;11.522;2024-02-15T16:35:23;12.40;63.60
28358;DHT22;15605;48.114;11.522;2024-02-15T16:37:59;12.40;63.60
28358;DHT22;15605;48.114;11.522;2024-02-15T16:41:15;12.50;63.50
28358;DHT22;15605;48.114;11.522;2024-02-15T16:43:55;12.50;63.50
28358;DHT22;15605;48.114;11.522;2024-02-15T16:46:26;12.40;63.50
28358;DHT22;15605;48.114;11.522;2024-02-15T16:49:03;12.40;63.60
28358;DHT22;15605;48.114;11.522;2024-02-15T16:51:50;12.40;63.50
28358;DHT22;15605;48.114;11.522;2024-02-15T16:54:30;12.40;63.60
28358;DHT22;15605;48.114;11.522;2024-02-15T16:57:13;12.40;63.60
28358;DHT22;15605;48.114;11.522;2024-02-15T16:59:44;12.40;63.60
28358;DHT22;15605;48.114;11.522;2024-02-15T17:02:25;12.40;63.70
28358;DHT22;15605;48.114;11.522;2024-02-15T17:05:04;12.40;63.70
28358;DHT22;15605;48.114;11.522;2024-02-15T17:07:38;12.40;63.70
28358;DHT22;15605;48.114;11.522;2024-02-15T17:10:25;12.40;63.60
28358;DHT22;15605;48.114;11.522;2024-02-15T17:12:58;12.40;63.60
28358;DHT22;15605;48.114;11.522;2024-02-15T17:15:29;12.40;63.50
28358;DHT22;15605;48.114;11.522;2024-02-15T17:18:16;12.50;63.50
28358;DHT22;15605;48.114;11.522;2024-02-15T17:21:01;12.40;63.50
28358;DHT22;15605;48.114;11.522;2024-02-15T17:23:41;12.40;63.50
28358;DHT22;15605;48.114;11.522;2024-02-15T17:26:22;12.40;63.50
28358;DHT22;15605;48.114;11.522;2024-02-15T17:29:07;12.40;63.60
28358;DHT22;15605;48.114;11.522;2024-02-15T17:31:54;12.40;63.50
28358;DHT22;15605;48.114;11.522;2024-02-15T17:34:36;12.40;64.30
28358;DHT22;15605;48.114;11.522;2024-02-15T17:37:11;12.40;63.50
28358;DHT22;15605;48.114;11.522;2024-02-15T17:39:59;12.40;63.50
28358;DHT22;15605;48.114;11.522;2024-02-15T17:42:42;12.40;63.60
28358;DHT22;15605;48.114;11.522;2024-02-15T17:45:21;12.40;63.60
28358;DHT22;15605;48.114;11.522;2024-02-15T17:47:55;12.40;63.50
28358;DHT22;15605;48.114;11.522;2024-02-15T17:50:34;12.50;63.60
28358;DHT22;15605;48.114;11.522;2024-02-15T17:53:15;12.40;63.50
28358;DHT22;15605;48.114;11.522;2024-02-15T17:55:53;12.50;63.50
28358;DHT22;15605;48.114;11.522;2024-02-15T17:58:29;12.50;63.60
28358;DHT22;15605;48.114;11.522;2024-02-15T18:01:08;12.50;63.50
28358;DHT22;15605;48.114;11.522;2024-02-15T18:03:44;12.50;63.50
28358;DHT22;15605;48.114;11.522;2024-02-15T18:06:16;12.50;63.60
28358;DHT22;15605;48.114;11.522;2024-02-15T18:08:49;12.50;63.50
28358;DHT22;15605;48.114;11.522;2024-02-15T18:11:23;12.50;63.50
28358;DHT22;15605;48.114;11.522;2024-02-15T18:13:55;12.50;63.60
28358;DHT22;15605;48.114;11.522;2024-02-15T18:16:41;12.50;63.60
28358;DHT22;15605;48.114;11.522;2024-02-15T18:19:21;12.50;63.60
28358;DHT22;15605;48.114;11.522;2024-02-15T18:21:58;12.50;63.80
28358;DHT22;15605;48.114;11.522;2024-02-15T18:24:31;12.50;63.70
28358;DHT22;15605;48.114;11.522;2024-02-15T18:27:11;12.50;63.60
28358;DHT22;15605;48.114;11.522;2024-02-15T18:29:50;12.40;63.60
28358;DHT22;15605;48.114;11.522;2024-02-15T18:32:22;12.50;63.60
28358;DHT22;15605;48.114;11.522;2024-02-15T18:34:58;12.50;63.60
28358;DHT22;15605;48.114;11.522;2024-02-15T18:37:41;12.50;63.60
28358;DHT22;15605;48.114;11.522;2024-02-15T18:40:18;12.40;63.80
28358;DHT22;15605;48.114;11.522;2024-02-15T18:42:50;12.40;63.70
28358;DHT22;15605;48.114;11.522;2024-02-15T18:45:24;12.40;63.70
28358;DHT22;15605;48.114;11.522;2024-02-15T18:48:03;12.40;63.70
28358;DHT22;15605;48.114;11.522;2024-02-15T18:50:45;12.50;63.70
28358;DHT22;15605;48.114;11.522;2024-02-15T18:53:25;12.40;63.80
28358;DHT22;15605;48.114;11.522;2024-02-15T18:55:58;12.40;63.90
28358;DHT22;15605;48.114;11.522;2024-02-15T18:58:30;12.50;64.00
28358;DHT22;15605;48.114;11.522;2024-02-15T19:01:15;12.50;63.90
28358;DHT22;15605;48.114;11.522;2024-02-15T19:03:48;12.50;63.90
28358;DHT22;15605;48.114;11.522;2024-02-15T19:06:24;12.50;63.80
28358;DHT22;15605;48.114;11.522;2024-02-15T19:09:00;12.50;63.90
28358;DHT22;15605;48.114;11.522;2024-02-15T19:11:31;12.50;63.80
28358;DHT22;15605;48.114;11.522;2024-02-15T19:14:03;12.50;63.90
28358;DHT22;15605;48.114;11.522;2024-02-15T19:16:33;12.40;63.90
28358;DHT22;15605;48.114;11.522;2024-02-15T19:19:05;12.40;64.00
28358;DHT22;15605;48.114;11.522;2024-02-15T19:21:46;12.50;64.10
28358;DHT22;15605;48.114;11.522;2024-02-15T19:24:19;12.40;64.10
28358;DHT22;15605;48.114;11.522;2024-02-15T19:26:51;12.50;64.80
28358;DHT22;15605;48.114;11.522;2024-02-15T19:29:24;12.40;64.10
28358;DHT22;15605;48.114;11.522;2024-02-15T19:31:58;12.50;64.10
28358;DHT22;15605;48.114;11.522;2024-02-15T19:34:32;12.50;64.20
28358;DHT22;15605;48.114;11.522;2024-02-15T19:37:03;12.50;64.10
28358;DHT22;15605;48.114;11.522;2024-02-15T19:39:40;12.50;64.00
28358;DHT22;15605;48.114;11.522;2024-02-15T19:42:25;12.50;64.10
28358;DHT22;15605;48.114;11.522;2024-02-15T19:45:02;12.50;64.20
28358;DHT22;15605;48.114;11.522;2024-02-15T19:47:37;12.50;64.10
28358;DHT22;15605;48.114;11.522;2024-02-15T19:50:11;12.50;64.20
28358;DHT22;15605;48.114;11.522;2024-02-15T19:52:55;12.40;64.50
28358;DHT22;15605;48.114;11.522;2024-02-15T19:55:32;12.40;64.40
28358;DHT22;15605;48.114;11.522;2024-02-15T19:58:05;12.40;64.40
28358;DHT22;15605;48.114;11.522;2024-02-15T20:00:37;12.40;64.50
28358;DHT22;15605;48.114;11.522;2024-02-15T20:03:09;12.40;64.60
28358;DHT22;15605;48.114;11.522;2024-02-15T20:05:46;12.40;64.60
28358;DHT22;15605;48.114;11.522;2024-02-15T20:08:19;12.40;64.70
28358;DHT22;15605;48.114;11.522;2024-02-15T20:10:52;12.40;64.60
28358;DHT22;15605;48.114;11.522;2024-02-15T20:13:28;12.40;64.60
28358;DHT22;15605;48.114;11.522;2024-02-15T20:16:08;12.40;64.60
28358;DHT22;15605;48.114;11.522;2024-02-15T20:18:42;12.40;64.70
28358;DHT22;15605;48.114;11.522;2024-02-15T20:21:13;12.40;64.80
28358;DHT22;15605;48.114;11.522;2024-02-15T20:23:44;12.40;64.80
28358;DHT22;15605;48.114;11.522;2024-02-15T20:26:22;12.40;64.80
28358;DHT22;15605;48.114;11.522;2024-02-15T20:28:55;12.40;64.90
28358;DHT22;15605;48.114;11.522;2024-02-15T20:31:27;12.40;65.00
28358;DHT22;15605;48.114;11.522;2024-02-15T20:34:08;12.40;65.00
28358;DHT22;15605;48.114;11.522;2024-02-15T20:36:41;12.40;64.90
28358;DHT22;15605;48.114;11.522;2024-02-15T20:39:17;12.40;65.00
28358;DHT22;15605;48.114;11.522;2024-02-15T20:41:49;12.40;65.00
28358;DHT22;15605;48.114;11.522;2024-02-15T20:44:25;12.40;65.10
28358;DHT22;15605;48.114;11.522;2024-02-15T20:46:55;12.40;65.20
28358;DHT22;15605;48.114;11.522;2024-02-15T20:49:33;12.40;65.10
28358;DHT22;15605;48.114;11.522;2024-02-15T20:52:09;12.40;65.20
28358;DHT22;15605;48.114;11.522;2024-02-15T20:54:55;12.40;65.30
28358;DHT22;15605;48.114;11.522;2024-02-15T20:57:37;12.40;65.20
28358;DHT22;15605;48.114;11.522;2024-02-15T21:00:13;12.40;65.40
28358;DHT22;15605;48.114;11.522;2024-02-15T21:02:59;12.40;65.20